sensor_id;sensor_type;location;lat;lon;timestamp;P1;durP1;ratioP1;P2;durP2;ratioP2
73150;SDS011;61354;50.758;6.106;2022-07-29T00:01:42;4.72;;;1.75;;
73150;SDS011;61354;50.758;6.106;2022-07-29T00:04:08;5.20;;;1.73;;
73150;SDS011;61354;50.758;6.106;2022-07-29T00:06:33;4.53;;;1.55;;
73150;SDS011;61354;50.758;6.106;2022-07-29T00:08:59;5.57;;;1.80;;
73150;SDS011;61354;50.758;6.106;2022-07-29T00:11:24;4.60;;;1.73;;
73150;SDS011;61354;50.758;6.106;2022-07-29T00:13:53;5.13;;;1.70;;
73150;SDS011;61354;50.758;6.106;2022-07-29T00:16:18;4.18;;;1.60;;
73150;SDS011;61354;50.758;6.106;2022-07-29T00:18:43;3.72;;;1.80;;
73150;SDS011;61354;50.758;6.106;2022-07-29T00:21:09;3.83;;;1.40;;
73150;SDS011;61354;50.758;6.106;2022-07-29T00:23:35;7.75;;;2.10;;
73150;SDS011;61354;50.758;6.106;2022-07-29T00:26:00;3.33;;;1.60;;
73150;SDS011;61354;50.758;6.106;2022-07-29T00:28:26;3.35;;;1.58;;
73150;SDS011;61354;50.758;6.106;2022-07-29T00:30:51;3.00;;;1.80;;
73150;SDS011;61354;50.758;6.106;2022-07-29T00:33:17;4.75;;;1.92;;
73150;SDS011;61354;50.758;6.106;2022-07-29T00:35:42;4.10;;;1.83;;
73150;SDS011;61354;50.758;6.106;2022-07-29T00:38:15;3.42;;;1.55;;
73150;SDS011;61354;50.758;6.106;2022-07-29T00:40:42;3.65;;;1.80;;
73150;SDS011;61354;50.758;6.106;2022-07-29T00:43:09;5.05;;;1.95;;
73150;SDS011;61354;50.758;6.106;2022-07-29T00:45:35;7.15;;;2.00;;
73150;SDS011;61354;50.758;6.106;2022-07-29T00:48:01;3.15;;;1.88;;
73150;SDS011;61354;50.758;6.106;2022-07-29T00:50:29;4.38;;;2.38;;
73150;SDS011;61354;50.758;6.106;2022-07-29T00:52:55;3.00;;;1.70;;
73150;SDS011;61354;50.758;6.106;2022-07-29T00:55:20;4.40;;;1.88;;
73150;SDS011;61354;50.758;6.106;2022-07-29T00:57:46;3.95;;;2.03;;
73150;SDS011;61354;50.758;6.106;2022-07-29T01:00:15;3.05;;;1.65;;
73150;SDS011;61354;50.758;6.106;2022-07-29T01:02:43;3.63;;;1.75;;
73150;SDS011;61354;50.758;6.106;2022-07-29T01:05:09;3.05;;;1.63;;
73150;SDS011;61354;50.758;6.106;2022-07-29T01:07:37;4.47;;;1.73;;
73150;SDS011;61354;50.758;6.106;2022-07-29T01:10:04;4.53;;;1.80;;
73150;SDS011;61354;50.758;6.106;2022-07-29T01:12:32;3.50;;;2.00;;
73150;SDS011;61354;50.758;6.106;2022-07-29T01:15:00;4.20;;;1.85;;
73150;SDS011;61354;50.758;6.106;2022-07-29T01:17:44;3.90;;;1.77;;
73150;SDS011;61354;50.758;6.106;2022-07-29T01:31:57;3.40;;;1.30;;
73150;SDS011;61354;50.758;6.106;2022-07-29T01:34:31;4.60;;;1.70;;
73150;SDS011;61354;50.758;6.106;2022-07-29T01:37:17;2.90;;;1.35;;
73150;SDS011;61354;50.758;6.106;2022-07-29T01:40:03;3.47;;;1.55;;
73150;SDS011;61354;50.758;6.106;2022-07-29T01:45:06;4.10;;;1.60;;
73150;SDS011;61354;50.758;6.106;2022-07-29T01:47:46;3.53;;;1.40;;
73150;SDS011;61354;50.758;6.106;2022-07-29T01:50:23;6.07;;;1.40;;
73150;SDS011;61354;50.758;6.106;2022-07-29T01:53:00;3.13;;;1.48;;
73150;SDS011;61354;50.758;6.106;2022-07-29T01:55:38;2.78;;;1.58;;
73150;SDS011;61354;50.758;6.106;2022-07-29T01:58:06;4.88;;;1.70;;
73150;SDS011;61354;50.758;6.106;2022-07-29T02:00:34;4.07;;;1.65;;
73150;SDS011;61354;50.758;6.106;2022-07-29T02:03:02;3.40;;;1.70;;
73150;SDS011;61354;50.758;6.106;2022-07-29T02:05:31;5.85;;;1.70;;
73150;SDS011;61354;50.758;6.106;2022-07-29T02:07:59;2.55;;;1.52;;
73150;SDS011;61354;50.758;6.106;2022-07-29T02:10:27;6.35;;;1.70;;
73150;SDS011;61354;50.758;6.106;2022-07-29T02:15:22;4.95;;;1.70;;
73150;SDS011;61354;50.758;6.106;2022-07-29T02:20:17;5.85;;;1.90;;
73150;SDS011;61354;50.758;6.106;2022-07-29T02:22:44;4.85;;;1.67;;
73150;SDS011;61354;50.758;6.106;2022-07-29T02:25:11;4.38;;;2.03;;
73150;SDS011;61354;50.758;6.106;2022-07-29T02:27:38;5.57;;;1.60;;
73150;SDS011;61354;50.758;6.106;2022-07-29T02:30:06;6.15;;;1.90;;
73150;SDS011;61354;50.758;6.106;2022-07-29T02:32:35;4.20;;;1.70;;
73150;SDS011;61354;50.758;6.106;2022-07-29T02:35:06;5.40;;;1.88;;
73150;SDS011;61354;50.758;6.106;2022-07-29T02:37:33;5.78;;;2.08;;
73150;SDS011;61354;50.758;6.106;2022-07-29T02:40:01;3.97;;;1.73;;
73150;SDS011;61354;50.758;6.106;2022-07-29T02:42:28;5.47;;;2.00;;
73150;SDS011;61354;50.758;6.106;2022-07-29T02:44:56;4.85;;;1.73;;
73150;SDS011;61354;50.758;6.106;2022-07-29T02:47:23;3.85;;;1.75;;
73150;SDS011;61354;50.758;6.106;2022-07-29T02:55:19;3.63;;;1.50;;
73150;SDS011;61354;50.758;6.106;2022-07-29T02:58:07;3.65;;;1.60;;
73150;SDS011;61354;50.758;6.106;2022-07-29T03:00:40;3.28;;;1.80;;
73150;SDS011;61354;50.758;6.106;2022-07-29T03:03:11;4.13;;;1.60;;
73150;SDS011;61354;50.758;6.106;2022-07-29T03:05:38;4.57;;;2.10;;
73150;SDS011;61354;50.758;6.106;2022-07-29T03:08:05;5.72;;;2.08;;
73150;SDS011;61354;50.758;6.106;2022-07-29T03:10:33;5.00;;;1.80;;
73150;SDS011;61354;50.758;6.106;2022-07-29T03:12:59;3.85;;;1.73;;
73150;SDS011;61354;50.758;6.106;2022-07-29T03:15:26;4.45;;;1.92;;
73150;SDS011;61354;50.758;6.106;2022-07-29T03:17:52;4.07;;;1.63;;
73150;SDS011;61354;50.758;6.106;2022-07-29T03:20:18;3.95;;;1.77;;
73150;SDS011;61354;50.758;6.106;2022-07-29T03:22:44;4.35;;;2.00;;
73150;SDS011;61354;50.758;6.106;2022-07-29T03:25:15;4.80;;;1.80;;
73150;SDS011;61354;50.758;6.106;2022-07-29T03:27:43;4.75;;;2.00;;
73150;SDS011;61354;50.758;6.106;2022-07-29T03:30:10;4.72;;;1.73;;
73150;SDS011;61354;50.758;6.106;2022-07-29T03:32:36;4.93;;;1.90;;
73150;SDS011;61354;50.758;6.106;2022-07-29T03:35:03;4.57;;;1.92;;
73150;SDS011;61354;50.758;6.106;2022-07-29T03:37:29;5.22;;;2.20;;
73150;SDS011;61354;50.758;6.106;2022-07-29T03:39:56;4.65;;;1.90;;
73150;SDS011;61354;50.758;6.106;2022-07-29T03:42:23;5.32;;;1.73;;
73150;SDS011;61354;50.758;6.106;2022-07-29T03:44:53;3.95;;;1.73;;
73150;SDS011;61354;50.758;6.106;2022-07-29T03:47:24;4.65;;;2.03;;
73150;SDS011;61354;50.758;6.106;2022-07-29T03:49:53;4.75;;;1.90;;
73150;SDS011;61354;50.758;6.106;2022-07-29T03:52:24;5.63;;;2.15;;
73150;SDS011;61354;50.758;6.106;2022-07-29T03:54:50;5.25;;;2.20;;
73150;SDS011;61354;50.758;6.106;2022-07-29T03:57:16;3.75;;;1.95;;
73150;SDS011;61354;50.758;6.106;2022-07-29T03:59:43;4.10;;;2.05;;
73150;SDS011;61354;50.758;6.106;2022-07-29T04:02:10;3.70;;;1.85;;
73150;SDS011;61354;50.758;6.106;2022-07-29T04:04:37;4.85;;;1.80;;
73150;SDS011;61354;50.758;6.106;2022-07-29T04:07:03;4.70;;;1.73;;
73150;SDS011;61354;50.758;6.106;2022-07-29T04:09:29;5.40;;;1.98;;
73150;SDS011;61354;50.758;6.106;2022-07-29T04:11:54;3.55;;;1.60;;
73150;SDS011;61354;50.758;6.106;2022-07-29T04:14:20;5.38;;;2.00;;
73150;SDS011;61354;50.758;6.106;2022-07-29T04:16:46;6.28;;;2.00;;
73150;SDS011;61354;50.758;6.106;2022-07-29T04:19:12;4.32;;;2.67;;
73150;SDS011;61354;50.758;6.106;2022-07-29T04:21:41;4.22;;;2.00;;
73150;SDS011;61354;50.758;6.106;2022-07-29T04:24:07;4.13;;;1.85;;
73150;SDS011;61354;50.758;6.106;2022-07-29T04:26:33;6.40;;;1.98;;
73150;SDS011;61354;50.758;6.106;2022-07-29T04:28:59;3.08;;;1.67;;
73150;SDS011;61354;50.758;6.106;2022-07-29T04:31:25;3.40;;;1.85;;
73150;SDS011;61354;50.758;6.106;2022-07-29T04:33:50;6.38;;;1.80;;
73150;SDS011;61354;50.758;6.106;2022-07-29T04:36:16;3.03;;;1.58;;
73150;SDS011;61354;50.758;6.106;2022-07-29T04:38:41;4.88;;;1.98;;
73150;SDS011;61354;50.758;6.106;2022-07-29T04:41:08;3.35;;;1.70;;
73150;SDS011;61354;50.758;6.106;2022-07-29T04:43:34;6.10;;;1.80;;
73150;SDS011;61354;50.758;6.106;2022-07-29T04:46:00;5.55;;;2.10;;
73150;SDS011;61354;50.758;6.106;2022-07-29T04:48:27;4.97;;;2.03;;
73150;SDS011;61354;50.758;6.106;2022-07-29T04:50:52;4.82;;;1.85;;
73150;SDS011;61354;50.758;6.106;2022-07-29T04:53:18;5.68;;;1.92;;
73150;SDS011;61354;50.758;6.106;2022-07-29T04:55:43;3.78;;;1.80;;
73150;SDS011;61354;50.758;6.106;2022-07-29T04:58:10;5.13;;;2.03;;
73150;SDS011;61354;50.758;6.106;2022-07-29T05:00:35;3.90;;;1.63;;
73150;SDS011;61354;50.758;6.106;2022-07-29T05:03:01;4.55;;;1.90;;
73150;SDS011;61354;50.758;6.106;2022-07-29T05:05:27;3.78;;;1.67;;
73150;SDS011;61354;50.758;6.106;2022-07-29T05:07:52;5.93;;;1.85;;
73150;SDS011;61354;50.758;6.106;2022-07-29T05:10:18;4.38;;;1.85;;
73150;SDS011;61354;50.758;6.106;2022-07-29T05:12:43;5.47;;;1.70;;
73150;SDS011;61354;50.758;6.106;2022-07-29T05:15:27;4.70;;;1.88;;
73150;SDS011;61354;50.758;6.106;2022-07-29T05:17:52;4.13;;;1.63;;
73150;SDS011;61354;50.758;6.106;2022-07-29T05:20:18;4.40;;;2.05;;
73150;SDS011;61354;50.758;6.106;2022-07-29T05:22:43;6.85;;;2.10;;
73150;SDS011;61354;50.758;6.106;2022-07-29T05:25:09;5.78;;;2.13;;
73150;SDS011;61354;50.758;6.106;2022-07-29T05:27:35;3.45;;;1.75;;
73150;SDS011;61354;50.758;6.106;2022-07-29T05:30:01;5.00;;;2.03;;
73150;SDS011;61354;50.758;6.106;2022-07-29T05:32:27;5.20;;;2.15;;
73150;SDS011;61354;50.758;6.106;2022-07-29T05:34:52;5.90;;;1.95;;
73150;SDS011;61354;50.758;6.106;2022-07-29T05:37:19;4.57;;;2.10;;
73150;SDS011;61354;50.758;6.106;2022-07-29T05:39:44;5.72;;;2.20;;
73150;SDS011;61354;50.758;6.106;2022-07-29T05:42:10;4.28;;;2.20;;
73150;SDS011;61354;50.758;6.106;2022-07-29T05:44:36;5.20;;;2.17;;
73150;SDS011;61354;50.758;6.106;2022-07-29T05:47:02;4.45;;;1.92;;
73150;SDS011;61354;50.758;6.106;2022-07-29T05:49:28;4.97;;;1.98;;
73150;SDS011;61354;50.758;6.106;2022-07-29T05:51:53;4.45;;;2.03;;
73150;SDS011;61354;50.758;6.106;2022-07-29T05:54:19;3.88;;;2.10;;
73150;SDS011;61354;50.758;6.106;2022-07-29T05:56:44;4.95;;;2.05;;
73150;SDS011;61354;50.758;6.106;2022-07-29T05:59:10;5.22;;;2.45;;
73150;SDS011;61354;50.758;6.106;2022-07-29T06:01:36;5.53;;;2.30;;
73150;SDS011;61354;50.758;6.106;2022-07-29T06:04:04;5.35;;;2.33;;
73150;SDS011;61354;50.758;6.106;2022-07-29T06:06:32;5.03;;;2.15;;
73150;SDS011;61354;50.758;6.106;2022-07-29T06:08:58;6.20;;;2.20;;
73150;SDS011;61354;50.758;6.106;2022-07-29T06:11:24;5.22;;;2.13;;
73150;SDS011;61354;50.758;6.106;2022-07-29T06:13:50;5.07;;;1.90;;
73150;SDS011;61354;50.758;6.106;2022-07-29T06:16:15;4.70;;;2.10;;
73150;SDS011;61354;50.758;6.106;2022-07-29T06:18:41;5.80;;;2.10;;
73150;SDS011;61354;50.758;6.106;2022-07-29T06:21:09;5.97;;;2.33;;
73150;SDS011;61354;50.758;6.106;2022-07-29T06:23:36;4.55;;;1.90;;
73150;SDS011;61354;50.758;6.106;2022-07-29T06:26:02;6.70;;;2.30;;
73150;SDS011;61354;50.758;6.106;2022-07-29T06:28:28;7.50;;;2.30;;
73150;SDS011;61354;50.758;6.106;2022-07-29T06:30:53;5.75;;;1.95;;
73150;SDS011;61354;50.758;6.106;2022-07-29T06:33:19;4.72;;;2.17;;
73150;SDS011;61354;50.758;6.106;2022-07-29T06:35:44;7.10;;;2.25;;
73150;SDS011;61354;50.758;6.106;2022-07-29T06:38:12;4.82;;;2.20;;
73150;SDS011;61354;50.758;6.106;2022-07-29T06:40:45;7.43;;;2.33;;
73150;SDS011;61354;50.758;6.106;2022-07-29T06:43:26;9.05;;;2.85;;
73150;SDS011;61354;50.758;6.106;2022-07-29T06:45:56;4.95;;;2.25;;
73150;SDS011;61354;50.758;6.106;2022-07-29T06:48:23;5.45;;;2.35;;
73150;SDS011;61354;50.758;6.106;2022-07-29T06:50:48;5.15;;;2.20;;
73150;SDS011;61354;50.758;6.106;2022-07-29T06:53:14;6.65;;;2.30;;
73150;SDS011;61354;50.758;6.106;2022-07-29T06:55:40;5.15;;;2.28;;
73150;SDS011;61354;50.758;6.106;2022-07-29T06:58:05;5.38;;;2.05;;
73150;SDS011;61354;50.758;6.106;2022-07-29T07:00:32;6.78;;;2.72;;
73150;SDS011;61354;50.758;6.106;2022-07-29T07:02:58;4.80;;;2.08;;
73150;SDS011;61354;50.758;6.106;2022-07-29T07:05:23;5.15;;;2.45;;
73150;SDS011;61354;50.758;6.106;2022-07-29T07:07:49;6.05;;;2.33;;
73150;SDS011;61354;50.758;6.106;2022-07-29T07:10:27;4.38;;;2.40;;
73150;SDS011;61354;50.758;6.106;2022-07-29T07:12:52;4.82;;;2.30;;
73150;SDS011;61354;50.758;6.106;2022-07-29T07:15:18;6.45;;;2.30;;
73150;SDS011;61354;50.758;6.106;2022-07-29T07:17:47;5.28;;;2.22;;
73150;SDS011;61354;50.758;6.106;2022-07-29T07:20:14;5.43;;;2.45;;
73150;SDS011;61354;50.758;6.106;2022-07-29T07:22:40;8.13;;;2.55;;
73150;SDS011;61354;50.758;6.106;2022-07-29T07:25:05;6.00;;;2.63;;
73150;SDS011;61354;50.758;6.106;2022-07-29T07:27:31;4.93;;;2.10;;
73150;SDS011;61354;50.758;6.106;2022-07-29T07:29:57;8.00;;;4.45;;
73150;SDS011;61354;50.758;6.106;2022-07-29T07:32:23;6.03;;;3.00;;
73150;SDS011;61354;50.758;6.106;2022-07-29T07:34:48;4.75;;;2.70;;
73150;SDS011;61354;50.758;6.106;2022-07-29T07:37:14;4.43;;;2.35;;
73150;SDS011;61354;50.758;6.106;2022-07-29T07:39:40;6.10;;;2.10;;
73150;SDS011;61354;50.758;6.106;2022-07-29T07:42:06;4.93;;;2.65;;
73150;SDS011;61354;50.758;6.106;2022-07-29T07:44:31;4.38;;;2.75;;
73150;SDS011;61354;50.758;6.106;2022-07-29T07:46:56;5.35;;;2.35;;
73150;SDS011;61354;50.758;6.106;2022-07-29T07:49:22;5.70;;;2.78;;
73150;SDS011;61354;50.758;6.106;2022-07-29T07:51:48;4.95;;;2.83;;
73150;SDS011;61354;50.758;6.106;2022-07-29T07:54:14;6.78;;;2.92;;
73150;SDS011;61354;50.758;6.106;2022-07-29T07:56:40;6.60;;;2.58;;
73150;SDS011;61354;50.758;6.106;2022-07-29T07:59:05;7.20;;;2.70;;
73150;SDS011;61354;50.758;6.106;2022-07-29T08:01:31;6.10;;;2.53;;
73150;SDS011;61354;50.758;6.106;2022-07-29T08:03:56;6.75;;;3.00;;
73150;SDS011;61354;50.758;6.106;2022-07-29T08:06:22;5.82;;;2.47;;
73150;SDS011;61354;50.758;6.106;2022-07-29T08:08:49;5.32;;;2.45;;
73150;SDS011;61354;50.758;6.106;2022-07-29T08:11:14;5.18;;;2.28;;
73150;SDS011;61354;50.758;6.106;2022-07-29T08:13:40;7.72;;;2.83;;
73150;SDS011;61354;50.758;6.106;2022-07-29T08:16:06;4.68;;;2.20;;
73150;SDS011;61354;50.758;6.106;2022-07-29T08:18:38;4.72;;;2.08;;
73150;SDS011;61354;50.758;6.106;2022-07-29T08:21:05;3.88;;;1.92;;
73150;SDS011;61354;50.758;6.106;2022-07-29T08:23:31;5.80;;;2.08;;
73150;SDS011;61354;50.758;6.106;2022-07-29T08:26:04;8.80;;;2.40;;
73150;SDS011;61354;50.758;6.106;2022-07-29T08:28:39;7.13;;;2.50;;
73150;SDS011;61354;50.758;6.106;2022-07-29T08:31:06;5.30;;;2.10;;
73150;SDS011;61354;50.758;6.106;2022-07-29T08:33:32;5.78;;;1.95;;
73150;SDS011;61354;50.758;6.106;2022-07-29T08:35:58;4.90;;;2.15;;
73150;SDS011;61354;50.758;6.106;2022-07-29T08:38:24;3.78;;;2.10;;
73150;SDS011;61354;50.758;6.106;2022-07-29T08:40:51;5.50;;;2.30;;
73150;SDS011;61354;50.758;6.106;2022-07-29T08:43:18;6.85;;;2.38;;
73150;SDS011;61354;50.758;6.106;2022-07-29T08:45:50;6.85;;;2.83;;
73150;SDS011;61354;50.758;6.106;2022-07-29T08:48:17;5.97;;;2.40;;
73150;SDS011;61354;50.758;6.106;2022-07-29T08:50:45;5.68;;;2.45;;
73150;SDS011;61354;50.758;6.106;2022-07-29T08:53:12;5.80;;;3.25;;
73150;SDS011;61354;50.758;6.106;2022-07-29T08:55:39;8.23;;;3.00;;
73150;SDS011;61354;50.758;6.106;2022-07-29T08:58:07;6.03;;;2.78;;
73150;SDS011;61354;50.758;6.106;2022-07-29T09:00:35;7.13;;;3.05;;
73150;SDS011;61354;50.758;6.106;2022-07-29T09:03:02;8.93;;;3.00;;
73150;SDS011;61354;50.758;6.106;2022-07-29T09:05:30;4.78;;;2.65;;
73150;SDS011;61354;50.758;6.106;2022-07-29T09:07:57;7.85;;;3.30;;
73150;SDS011;61354;50.758;6.106;2022-07-29T09:10:22;8.55;;;2.78;;
73150;SDS011;61354;50.758;6.106;2022-07-29T09:12:48;4.55;;;2.50;;
73150;SDS011;61354;50.758;6.106;2022-07-29T09:15:14;6.15;;;2.90;;
73150;SDS011;61354;50.758;6.106;2022-07-29T09:17:49;7.68;;;2.70;;
73150;SDS011;61354;50.758;6.106;2022-07-29T09:20:19;4.78;;;2.67;;
73150;SDS011;61354;50.758;6.106;2022-07-29T09:22:46;6.65;;;2.88;;
73150;SDS011;61354;50.758;6.106;2022-07-29T09:25:37;5.00;;;2.95;;
73150;SDS011;61354;50.758;6.106;2022-07-29T09:28:09;6.22;;;2.70;;
73150;SDS011;61354;50.758;6.106;2022-07-29T09:33:18;4.82;;;2.42;;
73150;SDS011;61354;50.758;6.106;2022-07-29T09:35:44;5.28;;;2.60;;
73150;SDS011;61354;50.758;6.106;2022-07-29T09:38:10;5.72;;;2.60;;
73150;SDS011;61354;50.758;6.106;2022-07-29T09:40:36;5.53;;;2.58;;
73150;SDS011;61354;50.758;6.106;2022-07-29T09:43:09;4.28;;;2.33;;
73150;SDS011;61354;50.758;6.106;2022-07-29T09:45:38;6.10;;;2.60;;
73150;SDS011;61354;50.758;6.106;2022-07-29T09:48:14;4.45;;;2.63;;
73150;SDS011;61354;50.758;6.106;2022-07-29T09:50:45;6.07;;;2.25;;
73150;SDS011;61354;50.758;6.106;2022-07-29T09:53:29;5.32;;;2.40;;
73150;SDS011;61354;50.758;6.106;2022-07-29T09:55:55;4.85;;;2.60;;
73150;SDS011;61354;50.758;6.106;2022-07-29T09:58:21;5.07;;;2.22;;
73150;SDS011;61354;50.758;6.106;2022-07-29T10:00:48;6.05;;;2.80;;
73150;SDS011;61354;50.758;6.106;2022-07-29T10:03:15;4.90;;;2.83;;
73150;SDS011;61354;50.758;6.106;2022-07-29T10:05:42;8.77;;;4.15;;
73150;SDS011;61354;50.758;6.106;2022-07-29T10:08:09;7.22;;;3.95;;
73150;SDS011;61354;50.758;6.106;2022-07-29T10:10:36;6.80;;;3.35;;
73150;SDS011;61354;50.758;6.106;2022-07-29T10:13:04;5.65;;;3.00;;
73150;SDS011;61354;50.758;6.106;2022-07-29T10:15:35;5.35;;;3.30;;
73150;SDS011;61354;50.758;6.106;2022-07-29T10:18:04;8.18;;;3.70;;
73150;SDS011;61354;50.758;6.106;2022-07-29T10:20:31;7.45;;;3.33;;
73150;SDS011;61354;50.758;6.106;2022-07-29T10:22:57;7.10;;;3.45;;
73150;SDS011;61354;50.758;6.106;2022-07-29T10:25:23;7.53;;;3.88;;
73150;SDS011;61354;50.758;6.106;2022-07-29T10:27:49;8.77;;;3.83;;
73150;SDS011;61354;50.758;6.106;2022-07-29T10:30:16;7.68;;;3.33;;
73150;SDS011;61354;50.758;6.106;2022-07-29T10:44:09;7.00;;;3.50;;
73150;SDS011;61354;50.758;6.106;2022-07-29T10:46:40;5.45;;;3.22;;
73150;SDS011;61354;50.758;6.106;2022-07-29T10:59:38;6.60;;;3.03;;
73150;SDS011;61354;50.758;6.106;2022-07-29T11:07:24;8.75;;;3.50;;
73150;SDS011;61354;50.758;6.106;2022-07-29T11:15:06;5.05;;;2.60;;
73150;SDS011;61354;50.758;6.106;2022-07-29T11:18:06;5.30;;;2.67;;
73150;SDS011;61354;50.758;6.106;2022-07-29T11:22:56;5.50;;;3.40;;
73150;SDS011;61354;50.758;6.106;2022-07-29T11:25:22;7.47;;;3.05;;
73150;SDS011;61354;50.758;6.106;2022-07-29T11:27:48;4.45;;;3.15;;
73150;SDS011;61354;50.758;6.106;2022-07-29T11:30:14;7.25;;;2.92;;
73150;SDS011;61354;50.758;6.106;2022-07-29T11:32:41;7.07;;;3.08;;
73150;SDS011;61354;50.758;6.106;2022-07-29T11:35:22;5.97;;;3.58;;
73150;SDS011;61354;50.758;6.106;2022-07-29T11:43:50;5.78;;;2.85;;
73150;SDS011;61354;50.758;6.106;2022-07-29T11:46:18;6.90;;;3.28;;
73150;SDS011;61354;50.758;6.106;2022-07-29T11:49:18;4.90;;;3.00;;
73150;SDS011;61354;50.758;6.106;2022-07-29T11:51:49;7.53;;;3.25;;
73150;SDS011;61354;50.758;6.106;2022-07-29T11:54:16;5.35;;;3.20;;
73150;SDS011;61354;50.758;6.106;2022-07-29T11:56:50;5.43;;;2.95;;
73150;SDS011;61354;50.758;6.106;2022-07-29T11:59:17;4.20;;;2.80;;
73150;SDS011;61354;50.758;6.106;2022-07-29T12:01:53;8.02;;;3.50;;
73150;SDS011;61354;50.758;6.106;2022-07-29T12:04:19;6.30;;;3.05;;
73150;SDS011;61354;50.758;6.106;2022-07-29T12:06:55;7.03;;;3.80;;
73150;SDS011;61354;50.758;6.106;2022-07-29T12:09:21;5.28;;;3.08;;
73150;SDS011;61354;50.758;6.106;2022-07-29T12:11:48;6.82;;;3.20;;
73150;SDS011;61354;50.758;6.106;2022-07-29T12:14:39;4.85;;;3.00;;
73150;SDS011;61354;50.758;6.106;2022-07-29T12:17:24;6.10;;;3.28;;
73150;SDS011;61354;50.758;6.106;2022-07-29T12:19:54;6.75;;;3.10;;
73150;SDS011;61354;50.758;6.106;2022-07-29T12:22:30;6.00;;;3.22;;
73150;SDS011;61354;50.758;6.106;2022-07-29T12:25:09;5.60;;;3.10;;
73150;SDS011;61354;50.758;6.106;2022-07-29T12:27:40;5.50;;;3.20;;
73150;SDS011;61354;50.758;6.106;2022-07-29T12:30:12;6.30;;;3.00;;
73150;SDS011;61354;50.758;6.106;2022-07-29T12:32:44;5.95;;;3.22;;
73150;SDS011;61354;50.758;6.106;2022-07-29T12:35:12;4.95;;;2.75;;
73150;SDS011;61354;50.758;6.106;2022-07-29T12:37:47;5.50;;;2.92;;
73150;SDS011;61354;50.758;6.106;2022-07-29T12:40:17;5.32;;;2.83;;
73150;SDS011;61354;50.758;6.106;2022-07-29T12:45:38;5.43;;;3.38;;
73150;SDS011;61354;50.758;6.106;2022-07-29T12:48:05;8.45;;;2.92;;
73150;SDS011;61354;50.758;6.106;2022-07-29T12:50:33;3.35;;;2.40;;
73150;SDS011;61354;50.758;6.106;2022-07-29T12:53:10;5.18;;;3.10;;
73150;SDS011;61354;50.758;6.106;2022-07-29T12:55:47;6.25;;;2.85;;
73150;SDS011;61354;50.758;6.106;2022-07-29T12:58:26;7.22;;;2.90;;
73150;SDS011;61354;50.758;6.106;2022-07-29T13:03:52;6.95;;;2.70;;
73150;SDS011;61354;50.758;6.106;2022-07-29T13:09:07;7.65;;;3.10;;
73150;SDS011;61354;50.758;6.106;2022-07-29T13:11:44;5.35;;;2.88;;
73150;SDS011;61354;50.758;6.106;2022-07-29T13:14:14;5.57;;;2.75;;
73150;SDS011;61354;50.758;6.106;2022-07-29T13:19:34;4.80;;;3.05;;
73150;SDS011;61354;50.758;6.106;2022-07-29T13:22:00;6.40;;;3.20;;
73150;SDS011;61354;50.758;6.106;2022-07-29T13:24:26;6.15;;;3.38;;
73150;SDS011;61354;50.758;6.106;2022-07-29T13:26:51;5.63;;;3.58;;
73150;SDS011;61354;50.758;6.106;2022-07-29T13:29:17;6.88;;;4.00;;
73150;SDS011;61354;50.758;6.106;2022-07-29T13:31:43;5.32;;;2.53;;
73150;SDS011;61354;50.758;6.106;2022-07-29T13:34:08;6.40;;;3.15;;
73150;SDS011;61354;50.758;6.106;2022-07-29T13:36:34;6.63;;;3.20;;
73150;SDS011;61354;50.758;6.106;2022-07-29T13:39:00;6.82;;;3.13;;
73150;SDS011;61354;50.758;6.106;2022-07-29T13:41:27;5.80;;;3.60;;
73150;SDS011;61354;50.758;6.106;2022-07-29T13:43:53;5.05;;;3.00;;
73150;SDS011;61354;50.758;6.106;2022-07-29T13:46:18;5.78;;;3.13;;
73150;SDS011;61354;50.758;6.106;2022-07-29T13:48:43;4.45;;;2.50;;
73150;SDS011;61354;50.758;6.106;2022-07-29T13:51:09;6.53;;;2.88;;
73150;SDS011;61354;50.758;6.106;2022-07-29T13:53:34;4.30;;;2.80;;
73150;SDS011;61354;50.758;6.106;2022-07-29T13:56:00;4.95;;;2.50;;
73150;SDS011;61354;50.758;6.106;2022-07-29T13:58:26;3.63;;;2.25;;
73150;SDS011;61354;50.758;6.106;2022-07-29T14:00:52;4.95;;;2.40;;
73150;SDS011;61354;50.758;6.106;2022-07-29T14:03:18;4.00;;;2.67;;
73150;SDS011;61354;50.758;6.106;2022-07-29T14:05:44;4.53;;;2.60;;
73150;SDS011;61354;50.758;6.106;2022-07-29T14:08:10;5.35;;;2.17;;
73150;SDS011;61354;50.758;6.106;2022-07-29T14:10:35;3.95;;;2.17;;
73150;SDS011;61354;50.758;6.106;2022-07-29T14:13:01;4.15;;;2.28;;
73150;SDS011;61354;50.758;6.106;2022-07-29T14:15:27;3.95;;;2.25;;
73150;SDS011;61354;50.758;6.106;2022-07-29T14:17:56;5.32;;;2.78;;
73150;SDS011;61354;50.758;6.106;2022-07-29T14:20:22;3.60;;;2.15;;
73150;SDS011;61354;50.758;6.106;2022-07-29T14:22:48;4.40;;;2.22;;
73150;SDS011;61354;50.758;6.106;2022-07-29T14:25:16;3.70;;;2.40;;
73150;SDS011;61354;50.758;6.106;2022-07-29T14:27:43;4.07;;;2.50;;
73150;SDS011;61354;50.758;6.106;2022-07-29T14:30:09;5.18;;;2.15;;
73150;SDS011;61354;50.758;6.106;2022-07-29T14:32:50;4.03;;;2.22;;
73150;SDS011;61354;50.758;6.106;2022-07-29T14:35:16;5.30;;;2.40;;
73150;SDS011;61354;50.758;6.106;2022-07-29T14:37:43;6.63;;;2.63;;
73150;SDS011;61354;50.758;6.106;2022-07-29T14:40:09;4.95;;;2.40;;
73150;SDS011;61354;50.758;6.106;2022-07-29T14:42:35;3.80;;;2.30;;
73150;SDS011;61354;50.758;6.106;2022-07-29T14:45:03;4.20;;;2.75;;
73150;SDS011;61354;50.758;6.106;2022-07-29T14:47:30;4.40;;;2.65;;
73150;SDS011;61354;50.758;6.106;2022-07-29T14:49:56;6.75;;;2.42;;
73150;SDS011;61354;50.758;6.106;2022-07-29T14:52:21;4.47;;;2.38;;
73150;SDS011;61354;50.758;6.106;2022-07-29T14:54:47;3.72;;;2.17;;
73150;SDS011;61354;50.758;6.106;2022-07-29T14:57:13;3.75;;;2.30;;
73150;SDS011;61354;50.758;6.106;2022-07-29T14:59:38;4.03;;;2.65;;
73150;SDS011;61354;50.758;6.106;2022-07-29T15:02:04;4.63;;;2.40;;
73150;SDS011;61354;50.758;6.106;2022-07-29T15:04:29;5.93;;;2.50;;
73150;SDS011;61354;50.758;6.106;2022-07-29T15:06:56;4.85;;;2.72;;
73150;SDS011;61354;50.758;6.106;2022-07-29T15:09:23;6.85;;;3.13;;
73150;SDS011;61354;50.758;6.106;2022-07-29T15:11:49;4.35;;;2.85;;
73150;SDS011;61354;50.758;6.106;2022-07-29T15:14:14;3.17;;;2.33;;
73150;SDS011;61354;50.758;6.106;2022-07-29T15:16:40;4.53;;;2.65;;
73150;SDS011;61354;50.758;6.106;2022-07-29T15:19:07;3.70;;;2.63;;
73150;SDS011;61354;50.758;6.106;2022-07-29T15:21:33;5.72;;;2.58;;
73150;SDS011;61354;50.758;6.106;2022-07-29T15:23:59;4.63;;;2.90;;
73150;SDS011;61354;50.758;6.106;2022-07-29T15:26:25;4.82;;;2.55;;
73150;SDS011;61354;50.758;6.106;2022-07-29T15:28:51;5.30;;;3.03;;
73150;SDS011;61354;50.758;6.106;2022-07-29T15:31:18;4.07;;;2.78;;
73150;SDS011;61354;50.758;6.106;2022-07-29T15:33:44;4.82;;;2.78;;
73150;SDS011;61354;50.758;6.106;2022-07-29T15:36:10;5.47;;;2.95;;
73150;SDS011;61354;50.758;6.106;2022-07-29T15:38:37;3.60;;;2.50;;
73150;SDS011;61354;50.758;6.106;2022-07-29T15:41:08;9.05;;;3.05;;
73150;SDS011;61354;50.758;6.106;2022-07-29T15:43:34;4.57;;;3.40;;
73150;SDS011;61354;50.758;6.106;2022-07-29T15:48:45;5.45;;;2.92;;
73150;SDS011;61354;50.758;6.106;2022-07-29T15:51:26;5.55;;;2.90;;
73150;SDS011;61354;50.758;6.106;2022-07-29T15:53:52;5.30;;;3.22;;
73150;SDS011;61354;50.758;6.106;2022-07-29T15:56:17;5.55;;;2.92;;
73150;SDS011;61354;50.758;6.106;2022-07-29T15:58:43;5.10;;;2.92;;
73150;SDS011;61354;50.758;6.106;2022-07-29T16:01:09;4.25;;;2.80;;
73150;SDS011;61354;50.758;6.106;2022-07-29T16:03:35;4.38;;;2.83;;
73150;SDS011;61354;50.758;6.106;2022-07-29T16:06:02;4.38;;;3.03;;
73150;SDS011;61354;50.758;6.106;2022-07-29T16:08:33;5.28;;;2.83;;
73150;SDS011;61354;50.758;6.106;2022-07-29T16:11:02;6.00;;;3.63;;
73150;SDS011;61354;50.758;6.106;2022-07-29T16:13:32;4.63;;;3.15;;
73150;SDS011;61354;50.758;6.106;2022-07-29T16:18:25;4.38;;;2.83;;